sensor_id;sensor_type;location;lat;lon;timestamp;P1;durP1;ratioP1;P2;durP2;ratioP2
71435;SDS011;59251;51.326;12.370;2024-03-06T00:01:54;20.43;;;9.80;;
71435;SDS011;59251;51.326;12.370;2024-03-06T00:04:21;19.48;;;9.48;;
71435;SDS011;59251;51.326;12.370;2024-03-06T00:06:48;19.42;;;9.27;;
71435;SDS011;59251;51.326;12.370;2024-03-06T00:09:17;25.08;;;10.02;;
71435;SDS011;59251;51.326;12.370;2024-03-06T00:11:44;20.33;;;9.98;;
71435;SDS011;59251;51.326;12.370;2024-03-06T00:14:10;22.00;;;8.90;;
71435;SDS011;59251;51.326;12.370;2024-03-06T00:16:39;23.80;;;9.40;;
71435;SDS011;59251;51.326;12.370;2024-03-06T00:19:05;25.83;;;9.55;;
71435;SDS011;59251;51.326;12.370;2024-03-06T00:21:32;20.75;;;9.10;;
71435;SDS011;59251;51.326;12.370;2024-03-06T00:23:59;24.27;;;9.82;;
71435;SDS011;59251;51.326;12.370;2024-03-06T00:26:25;24.83;;;9.50;;
71435;SDS011;59251;51.326;12.370;2024-03-06T00:28:52;21.02;;;9.10;;
71435;SDS011;59251;51.326;12.370;2024-03-06T00:31:19;24.17;;;9.73;;
71435;SDS011;59251;51.326;12.370;2024-03-06T00:33:47;24.92;;;9.63;;
71435;SDS011;59251;51.326;12.370;2024-03-06T00:36:14;24.33;;;10.80;;
71435;SDS011;59251;51.326;12.370;2024-03-06T00:38:41;19.50;;;9.30;;
71435;SDS011;59251;51.326;12.370;2024-03-06T00:41:08;22.15;;;9.32;;
71435;SDS011;59251;51.326;12.370;2024-03-06T00:43:35;22.00;;;9.65;;
71435;SDS011;59251;51.326;12.370;2024-03-06T00:46:02;25.20;;;9.95;;
71435;SDS011;59251;51.326;12.370;2024-03-06T00:48:29;21.67;;;9.35;;
71435;SDS011;59251;51.326;12.370;2024-03-06T00:50:57;22.80;;;8.93;;
71435;SDS011;59251;51.326;12.370;2024-03-06T00:53:23;21.50;;;10.13;;
71435;SDS011;59251;51.326;12.370;2024-03-06T00:55:50;25.15;;;10.40;;
71435;SDS011;59251;51.326;12.370;2024-03-06T00:58:17;23.40;;;9.45;;
71435;SDS011;59251;51.326;12.370;2024-03-06T01:00:44;23.85;;;10.20;;
71435;SDS011;59251;51.326;12.370;2024-03-06T01:03:10;24.03;;;10.37;;
71435;SDS011;59251;51.326;12.370;2024-03-06T01:05:37;21.05;;;9.07;;
71435;SDS011;59251;51.326;12.370;2024-03-06T01:08:05;20.85;;;8.65;;
71435;SDS011;59251;51.326;12.370;2024-03-06T01:10:32;23.25;;;9.45;;
71435;SDS011;59251;51.326;12.370;2024-03-06T01:12:59;22.13;;;8.85;;
71435;SDS011;59251;51.326;12.370;2024-03-06T01:15:26;25.73;;;10.90;;
71435;SDS011;59251;51.326;12.370;2024-03-06T01:17:52;22.15;;;9.57;;
71435;SDS011;59251;51.326;12.370;2024-03-06T01:20:19;22.25;;;10.98;;
71435;SDS011;59251;51.326;12.370;2024-03-06T01:22:46;19.70;;;9.65;;
71435;SDS011;59251;51.326;12.370;2024-03-06T01:25:14;24.45;;;10.50;;
71435;SDS011;59251;51.326;12.370;2024-03-06T01:27:40;21.53;;;10.93;;
71435;SDS011;59251;51.326;12.370;2024-03-06T01:30:07;22.58;;;9.75;;
71435;SDS011;59251;51.326;12.370;2024-03-06T01:32:35;28.90;;;10.63;;
71435;SDS011;59251;51.326;12.370;2024-03-06T01:35:02;23.23;;;10.38;;
71435;SDS011;59251;51.326;12.370;2024-03-06T01:37:30;25.48;;;10.20;;
71435;SDS011;59251;51.326;12.370;2024-03-06T01:39:57;22.53;;;9.67;;
71435;SDS011;59251;51.326;12.370;2024-03-06T01:42:25;25.77;;;9.75;;
71435;SDS011;59251;51.326;12.370;2024-03-06T01:44:51;25.33;;;10.63;;
71435;SDS011;59251;51.326;12.370;2024-03-06T01:47:18;25.08;;;10.52;;
71435;SDS011;59251;51.326;12.370;2024-03-06T01:49:45;26.88;;;11.40;;
71435;SDS011;59251;51.326;12.370;2024-03-06T01:52:13;25.57;;;10.43;;
71435;SDS011;59251;51.326;12.370;2024-03-06T01:54:42;29.30;;;11.82;;
71435;SDS011;59251;51.326;12.370;2024-03-06T01:57:10;24.92;;;10.82;;
71435;SDS011;59251;51.326;12.370;2024-03-06T01:59:42;25.00;;;10.60;;
71435;SDS011;59251;51.326;12.370;2024-03-06T02:02:09;28.75;;;12.05;;
71435;SDS011;59251;51.326;12.370;2024-03-06T02:04:36;22.67;;;9.80;;
71435;SDS011;59251;51.326;12.370;2024-03-06T02:07:03;22.30;;;11.20;;
71435;SDS011;59251;51.326;12.370;2024-03-06T02:09:35;24.52;;;9.70;;
71435;SDS011;59251;51.326;12.370;2024-03-06T02:12:02;27.33;;;10.77;;
71435;SDS011;59251;51.326;12.370;2024-03-06T02:14:28;24.70;;;10.77;;
71435;SDS011;59251;51.326;12.370;2024-03-06T02:16:57;26.63;;;10.80;;
71435;SDS011;59251;51.326;12.370;2024-03-06T02:19:23;28.83;;;12.18;;
71435;SDS011;59251;51.326;12.370;2024-03-06T02:21:53;26.27;;;11.65;;
71435;SDS011;59251;51.326;12.370;2024-03-06T02:24:20;28.83;;;11.70;;
71435;SDS011;59251;51.326;12.370;2024-03-06T02:26:46;25.73;;;10.75;;
71435;SDS011;59251;51.326;12.370;2024-03-06T02:29:13;26.20;;;11.07;;
71435;SDS011;59251;51.326;12.370;2024-03-06T02:31:40;29.08;;;11.70;;
71435;SDS011;59251;51.326;12.370;2024-03-06T02:34:07;27.00;;;12.23;;
71435;SDS011;59251;51.326;12.370;2024-03-06T02:36:33;25.17;;;11.35;;
71435;SDS011;59251;51.326;12.370;2024-03-06T02:39:02;25.80;;;11.50;;
71435;SDS011;59251;51.326;12.370;2024-03-06T02:41:34;28.70;;;12.90;;
71435;SDS011;59251;51.326;12.370;2024-03-06T02:44:01;32.45;;;12.68;;
71435;SDS011;59251;51.326;12.370;2024-03-06T02:46:29;30.58;;;12.68;;
71435;SDS011;59251;51.326;12.370;2024-03-06T02:48:55;32.63;;;13.27;;
71435;SDS011;59251;51.326;12.370;2024-03-06T02:51:22;29.58;;;12.95;;
71435;SDS011;59251;51.326;12.370;2024-03-06T02:53:49;31.00;;;13.47;;
71435;SDS011;59251;51.326;12.370;2024-03-06T02:56:19;35.30;;;13.40;;
71435;SDS011;59251;51.326;12.370;2024-03-06T02:58:46;30.15;;;12.25;;
71435;SDS011;59251;51.326;12.370;2024-03-06T03:01:14;30.92;;;13.48;;
71435;SDS011;59251;51.326;12.370;2024-03-06T03:03:41;31.27;;;13.68;;
71435;SDS011;59251;51.326;12.370;2024-03-06T03:06:08;29.40;;;13.30;;
71435;SDS011;59251;51.326;12.370;2024-03-06T03:08:35;33.35;;;14.88;;
71435;SDS011;59251;51.326;12.370;2024-03-06T03:11:03;32.22;;;14.65;;
71435;SDS011;59251;51.326;12.370;2024-03-06T03:13:31;35.55;;;13.80;;
71435;SDS011;59251;51.326;12.370;2024-03-06T03:15:58;35.05;;;13.88;;
71435;SDS011;59251;51.326;12.370;2024-03-06T03:18:25;31.20;;;13.87;;
71435;SDS011;59251;51.326;12.370;2024-03-06T03:20:51;33.55;;;13.98;;
71435;SDS011;59251;51.326;12.370;2024-03-06T03:23:18;31.08;;;13.82;;
71435;SDS011;59251;51.326;12.370;2024-03-06T03:25:47;33.20;;;14.48;;
71435;SDS011;59251;51.326;12.370;2024-03-06T03:28:14;33.63;;;14.35;;
71435;SDS011;59251;51.326;12.370;2024-03-06T03:30:43;38.37;;;14.50;;
71435;SDS011;59251;51.326;12.370;2024-03-06T03:33:10;39.17;;;14.88;;
71435;SDS011;59251;51.326;12.370;2024-03-06T03:35:37;34.22;;;14.68;;
71435;SDS011;59251;51.326;12.370;2024-03-06T03:38:04;33.80;;;13.30;;
71435;SDS011;59251;51.326;12.370;2024-03-06T03:40:31;32.35;;;14.50;;
71435;SDS011;59251;51.326;12.370;2024-03-06T03:42:58;30.40;;;13.70;;
71435;SDS011;59251;51.326;12.370;2024-03-06T03:45:31;30.63;;;13.50;;
71435;SDS011;59251;51.326;12.370;2024-03-06T03:47:59;35.88;;;15.13;;
71435;SDS011;59251;51.326;12.370;2024-03-06T03:50:27;34.83;;;14.82;;
71435;SDS011;59251;51.326;12.370;2024-03-06T03:52:55;34.55;;;15.23;;
71435;SDS011;59251;51.326;12.370;2024-03-06T03:55:23;35.33;;;14.57;;
71435;SDS011;59251;51.326;12.370;2024-03-06T03:57:50;38.40;;;14.73;;
71435;SDS011;59251;51.326;12.370;2024-03-06T04:00:18;35.33;;;15.48;;
71435;SDS011;59251;51.326;12.370;2024-03-06T04:02:45;35.83;;;15.63;;
71435;SDS011;59251;51.326;12.370;2024-03-06T04:05:13;40.00;;;15.10;;
71435;SDS011;59251;51.326;12.370;2024-03-06T04:07:40;33.07;;;14.30;;
71435;SDS011;59251;51.326;12.370;2024-03-06T04:10:07;36.90;;;15.98;;
71435;SDS011;59251;51.326;12.370;2024-03-06T04:12:36;38.38;;;16.63;;
71435;SDS011;59251;51.326;12.370;2024-03-06T04:15:04;41.95;;;16.70;;
71435;SDS011;59251;51.326;12.370;2024-03-06T04:17:31;35.05;;;16.13;;
71435;SDS011;59251;51.326;12.370;2024-03-06T04:19:58;40.83;;;16.43;;
71435;SDS011;59251;51.326;12.370;2024-03-06T04:22:26;41.85;;;16.67;;
71435;SDS011;59251;51.326;12.370;2024-03-06T04:24:54;40.17;;;15.90;;
71435;SDS011;59251;51.326;12.370;2024-03-06T04:27:23;36.80;;;15.23;;
71435;SDS011;59251;51.326;12.370;2024-03-06T04:29:50;34.30;;;15.40;;
71435;SDS011;59251;51.326;12.370;2024-03-06T04:32:17;40.10;;;15.83;;
71435;SDS011;59251;51.326;12.370;2024-03-06T04:34:44;34.80;;;15.55;;
71435;SDS011;59251;51.326;12.370;2024-03-06T04:37:11;42.95;;;17.15;;
71435;SDS011;59251;51.326;12.370;2024-03-06T04:39:39;41.65;;;17.30;;
71435;SDS011;59251;51.326;12.370;2024-03-06T04:42:06;40.97;;;16.30;;
71435;SDS011;59251;51.326;12.370;2024-03-06T04:44:33;41.23;;;16.57;;
71435;SDS011;59251;51.326;12.370;2024-03-06T04:47:00;36.50;;;14.98;;
71435;SDS011;59251;51.326;12.370;2024-03-06T04:49:27;38.72;;;16.17;;
71435;SDS011;59251;51.326;12.370;2024-03-06T04:51:53;40.97;;;16.75;;
71435;SDS011;59251;51.326;12.370;2024-03-06T04:54:20;42.25;;;16.20;;
71435;SDS011;59251;51.326;12.370;2024-03-06T04:56:48;40.60;;;17.20;;
71435;SDS011;59251;51.326;12.370;2024-03-06T04:59:15;40.35;;;16.58;;
71435;SDS011;59251;51.326;12.370;2024-03-06T05:01:41;46.20;;;18.13;;
71435;SDS011;59251;51.326;12.370;2024-03-06T05:04:09;42.20;;;16.60;;
71435;SDS011;59251;51.326;12.370;2024-03-06T05:06:37;41.90;;;16.95;;
71435;SDS011;59251;51.326;12.370;2024-03-06T05:09:03;37.30;;;16.00;;
71435;SDS011;59251;51.326;12.370;2024-03-06T05:11:30;43.35;;;16.80;;
71435;SDS011;59251;51.326;12.370;2024-03-06T05:13:59;38.00;;;16.70;;
71435;SDS011;59251;51.326;12.370;2024-03-06T05:16:26;41.20;;;16.35;;
71435;SDS011;59251;51.326;12.370;2024-03-06T05:18:53;38.03;;;15.50;;
71435;SDS011;59251;51.326;12.370;2024-03-06T05:21:20;38.13;;;17.07;;
71435;SDS011;59251;51.326;12.370;2024-03-06T05:23:47;47.28;;;17.08;;
71435;SDS011;59251;51.326;12.370;2024-03-06T05:26:14;39.80;;;16.33;;
71435;SDS011;59251;51.326;12.370;2024-03-06T05:28:41;41.65;;;16.27;;
71435;SDS011;59251;51.326;12.370;2024-03-06T05:31:16;42.30;;;18.35;;
71435;SDS011;59251;51.326;12.370;2024-03-06T05:33:44;38.13;;;16.43;;
71435;SDS011;59251;51.326;12.370;2024-03-06T05:36:10;40.28;;;16.83;;
71435;SDS011;59251;51.326;12.370;2024-03-06T05:38:39;40.25;;;17.38;;
71435;SDS011;59251;51.326;12.370;2024-03-06T05:41:06;38.65;;;16.27;;
71435;SDS011;59251;51.326;12.370;2024-03-06T05:43:33;39.50;;;17.02;;
71435;SDS011;59251;51.326;12.370;2024-03-06T05:46:00;39.03;;;15.93;;
71435;SDS011;59251;51.326;12.370;2024-03-06T05:48:28;42.58;;;18.63;;
71435;SDS011;59251;51.326;12.370;2024-03-06T05:50:55;45.33;;;17.17;;
71435;SDS011;59251;51.326;12.370;2024-03-06T05:53:22;40.33;;;17.52;;
71435;SDS011;59251;51.326;12.370;2024-03-06T05:55:49;44.22;;;17.60;;
71435;SDS011;59251;51.326;12.370;2024-03-06T05:58:16;42.33;;;16.70;;
71435;SDS011;59251;51.326;12.370;2024-03-06T06:00:42;44.65;;;18.58;;
71435;SDS011;59251;51.326;12.370;2024-03-06T06:03:09;42.28;;;18.70;;
71435;SDS011;59251;51.326;12.370;2024-03-06T06:05:38;41.40;;;16.10;;
71435;SDS011;59251;51.326;12.370;2024-03-06T06:08:05;46.13;;;17.90;;
71435;SDS011;59251;51.326;12.370;2024-03-06T06:10:32;40.33;;;15.43;;
71435;SDS011;59251;51.326;12.370;2024-03-06T06:13:00;42.67;;;17.13;;
71435;SDS011;59251;51.326;12.370;2024-03-06T06:15:28;43.17;;;17.10;;
71435;SDS011;59251;51.326;12.370;2024-03-06T06:17:55;37.45;;;15.15;;
71435;SDS011;59251;51.326;12.370;2024-03-06T06:20:22;45.30;;;17.05;;
71435;SDS011;59251;51.326;12.370;2024-03-06T06:22:50;40.77;;;16.87;;
71435;SDS011;59251;51.326;12.370;2024-03-06T06:25:17;38.20;;;16.17;;
71435;SDS011;59251;51.326;12.370;2024-03-06T06:27:44;45.42;;;17.00;;
71435;SDS011;59251;51.326;12.370;2024-03-06T06:30:11;40.65;;;15.95;;
71435;SDS011;59251;51.326;12.370;2024-03-06T06:32:39;39.33;;;16.40;;
71435;SDS011;59251;51.326;12.370;2024-03-06T06:35:06;39.63;;;15.83;;
71435;SDS011;59251;51.326;12.370;2024-03-06T06:37:34;36.92;;;15.13;;
71435;SDS011;59251;51.326;12.370;2024-03-06T06:40:02;43.88;;;17.00;;
71435;SDS011;59251;51.326;12.370;2024-03-06T06:42:31;36.70;;;15.57;;
71435;SDS011;59251;51.326;12.370;2024-03-06T06:44:58;39.42;;;16.13;;
71435;SDS011;59251;51.326;12.370;2024-03-06T06:47:25;37.17;;;15.63;;
71435;SDS011;59251;51.326;12.370;2024-03-06T06:49:53;37.33;;;15.75;;
71435;SDS011;59251;51.326;12.370;2024-03-06T06:52:19;38.20;;;16.25;;
71435;SDS011;59251;51.326;12.370;2024-03-06T06:54:46;45.55;;;17.80;;
71435;SDS011;59251;51.326;12.370;2024-03-06T06:57:15;39.28;;;17.70;;
71435;SDS011;59251;51.326;12.370;2024-03-06T06:59:42;41.93;;;13.90;;
71435;SDS011;59251;51.326;12.370;2024-03-06T07:02:08;39.63;;;16.40;;
71435;SDS011;59251;51.326;12.370;2024-03-06T07:04:35;36.63;;;16.35;;
71435;SDS011;59251;51.326;12.370;2024-03-06T07:07:02;37.08;;;17.67;;
71435;SDS011;59251;51.326;12.370;2024-03-06T07:09:29;32.45;;;13.80;;
71435;SDS011;59251;51.326;12.370;2024-03-06T07:11:55;40.63;;;15.70;;
71435;SDS011;59251;51.326;12.370;2024-03-06T07:14:24;39.42;;;15.68;;
71435;SDS011;59251;51.326;12.370;2024-03-06T07:16:50;41.13;;;16.45;;
71435;SDS011;59251;51.326;12.370;2024-03-06T07:19:17;34.83;;;15.48;;
71435;SDS011;59251;51.326;12.370;2024-03-06T07:21:44;33.45;;;14.50;;
71435;SDS011;59251;51.326;12.370;2024-03-06T07:24:10;37.30;;;15.20;;
71435;SDS011;59251;51.326;12.370;2024-03-06T07:26:37;37.45;;;15.23;;
71435;SDS011;59251;51.326;12.370;2024-03-06T07:29:04;35.63;;;15.82;;
71435;SDS011;59251;51.326;12.370;2024-03-06T07:31:39;38.33;;;15.48;;
71435;SDS011;59251;51.326;12.370;2024-03-06T07:34:06;41.92;;;16.05;;
71435;SDS011;59251;51.326;12.370;2024-03-06T07:36:33;37.87;;;15.67;;
71435;SDS011;59251;51.326;12.370;2024-03-06T07:39:01;36.33;;;15.85;;
71435;SDS011;59251;51.326;12.370;2024-03-06T07:41:28;34.50;;;15.40;;
71435;SDS011;59251;51.326;12.370;2024-03-06T07:43:54;39.58;;;16.55;;
71435;SDS011;59251;51.326;12.370;2024-03-06T07:46:21;33.17;;;14.73;;
71435;SDS011;59251;51.326;12.370;2024-03-06T07:48:49;36.97;;;15.80;;
71435;SDS011;59251;51.326;12.370;2024-03-06T07:51:16;39.22;;;16.98;;
71435;SDS011;59251;51.326;12.370;2024-03-06T07:53:43;42.35;;;16.92;;
71435;SDS011;59251;51.326;12.370;2024-03-06T07:56:10;41.78;;;15.82;;
71435;SDS011;59251;51.326;12.370;2024-03-06T07:58:37;42.33;;;17.13;;
71435;SDS011;59251;51.326;12.370;2024-03-06T08:01:05;39.87;;;16.37;;
71435;SDS011;59251;51.326;12.370;2024-03-06T08:03:32;40.60;;;16.08;;
71435;SDS011;59251;51.326;12.370;2024-03-06T08:06:01;37.03;;;14.73;;
71435;SDS011;59251;51.326;12.370;2024-03-06T08:08:29;35.95;;;15.23;;
71435;SDS011;59251;51.326;12.370;2024-03-06T08:10:55;34.45;;;14.75;;
71435;SDS011;59251;51.326;12.370;2024-03-06T08:13:22;37.03;;;16.53;;
71435;SDS011;59251;51.326;12.370;2024-03-06T08:15:49;34.95;;;14.77;;
71435;SDS011;59251;51.326;12.370;2024-03-06T08:18:16;37.67;;;16.67;;
71435;SDS011;59251;51.326;12.370;2024-03-06T08:20:43;37.97;;;15.63;;
71435;SDS011;59251;51.326;12.370;2024-03-06T08:23:11;38.13;;;15.48;;
71435;SDS011;59251;51.326;12.370;2024-03-06T08:25:38;53.10;;;17.30;;
71435;SDS011;59251;51.326;12.370;2024-03-06T08:28:05;38.53;;;15.82;;
71435;SDS011;59251;51.326;12.370;2024-03-06T08:30:32;41.97;;;17.50;;
71435;SDS011;59251;51.326;12.370;2024-03-06T08:32:59;36.30;;;16.58;;
71435;SDS011;59251;51.326;12.370;2024-03-06T08:35:25;40.47;;;17.20;;
71435;SDS011;59251;51.326;12.370;2024-03-06T08:37:52;44.10;;;19.47;;
71435;SDS011;59251;51.326;12.370;2024-03-06T08:40:20;42.10;;;17.73;;
71435;SDS011;59251;51.326;12.370;2024-03-06T08:42:48;43.92;;;19.27;;
71435;SDS011;59251;51.326;12.370;2024-03-06T08:45:15;41.22;;;18.15;;
71435;SDS011;59251;51.326;12.370;2024-03-06T08:47:43;40.22;;;17.42;;
71435;SDS011;59251;51.326;12.370;2024-03-06T08:50:10;44.03;;;20.57;;
71435;SDS011;59251;51.326;12.370;2024-03-06T08:52:37;45.22;;;18.35;;
71435;SDS011;59251;51.326;12.370;2024-03-06T08:55:05;42.97;;;18.88;;
71435;SDS011;59251;51.326;12.370;2024-03-06T08:57:34;42.95;;;17.42;;
71435;SDS011;59251;51.326;12.370;2024-03-06T09:00:01;40.38;;;19.38;;
71435;SDS011;59251;51.326;12.370;2024-03-06T09:02:28;39.37;;;17.53;;
71435;SDS011;59251;51.326;12.370;2024-03-06T09:04:55;42.35;;;18.85;;
71435;SDS011;59251;51.326;12.370;2024-03-06T09:07:22;43.38;;;20.30;;
71435;SDS011;59251;51.326;12.370;2024-03-06T09:09:50;43.25;;;17.65;;
71435;SDS011;59251;51.326;12.370;2024-03-06T09:12:17;46.55;;;18.33;;
71435;SDS011;59251;51.326;12.370;2024-03-06T09:14:46;44.03;;;18.97;;
71435;SDS011;59251;51.326;12.370;2024-03-06T09:17:12;40.60;;;17.85;;
71435;SDS011;59251;51.326;12.370;2024-03-06T09:19:40;43.95;;;18.27;;
71435;SDS011;59251;51.326;12.370;2024-03-06T09:22:07;42.67;;;18.00;;
71435;SDS011;59251;51.326;12.370;2024-03-06T09:24:34;41.13;;;18.13;;
71435;SDS011;59251;51.326;12.370;2024-03-06T09:27:03;43.50;;;17.60;;
71435;SDS011;59251;51.326;12.370;2024-03-06T09:29:30;41.05;;;18.15;;
71435;SDS011;59251;51.326;12.370;2024-03-06T09:31:58;43.42;;;18.60;;
71435;SDS011;59251;51.326;12.370;2024-03-06T09:34:25;41.85;;;18.15;;
71435;SDS011;59251;51.326;12.370;2024-03-06T09:36:52;42.67;;;19.70;;
71435;SDS011;59251;51.326;12.370;2024-03-06T09:39:19;42.13;;;19.00;;
71435;SDS011;59251;51.326;12.370;2024-03-06T09:41:48;46.33;;;19.05;;
71435;SDS011;59251;51.326;12.370;2024-03-06T09:44:15;42.63;;;19.15;;
71435;SDS011;59251;51.326;12.370;2024-03-06T09:46:43;42.67;;;17.52;;
71435;SDS011;59251;51.326;12.370;2024-03-06T09:49:12;43.63;;;18.67;;
71435;SDS011;59251;51.326;12.370;2024-03-06T09:51:41;41.03;;;18.77;;
71435;SDS011;59251;51.326;12.370;2024-03-06T09:54:10;51.08;;;20.73;;
71435;SDS011;59251;51.326;12.370;2024-03-06T09:56:40;42.92;;;21.13;;
71435;SDS011;59251;51.326;12.370;2024-03-06T09:59:08;48.72;;;20.48;;
71435;SDS011;59251;51.326;12.370;2024-03-06T10:01:35;43.58;;;18.83;;
71435;SDS011;59251;51.326;12.370;2024-03-06T10:04:20;39.07;;;17.90;;
71435;SDS011;59251;51.326;12.370;2024-03-06T10:06:49;43.10;;;18.65;;
71435;SDS011;59251;51.326;12.370;2024-03-06T10:09:17;40.10;;;18.33;;
71435;SDS011;59251;51.326;12.370;2024-03-06T10:11:44;43.67;;;18.90;;
71435;SDS011;59251;51.326;12.370;2024-03-06T10:14:11;45.80;;;19.33;;
71435;SDS011;59251;51.326;12.370;2024-03-06T10:16:51;43.20;;;19.20;;
71435;SDS011;59251;51.326;12.370;2024-03-06T10:19:18;40.83;;;18.33;;
71435;SDS011;59251;51.326;12.370;2024-03-06T10:21:48;39.72;;;18.35;;
71435;SDS011;59251;51.326;12.370;2024-03-06T10:24:19;42.13;;;17.92;;
71435;SDS011;59251;51.326;12.370;2024-03-06T10:26:46;39.58;;;17.73;;
71435;SDS011;59251;51.326;12.370;2024-03-06T10:29:15;43.57;;;18.37;;
71435;SDS011;59251;51.326;12.370;2024-03-06T10:31:48;42.92;;;17.52;;
71435;SDS011;59251;51.326;12.370;2024-03-06T10:34:16;40.90;;;18.50;;
71435;SDS011;59251;51.326;12.370;2024-03-06T10:36:44;41.15;;;17.80;;
71435;SDS011;59251;51.326;12.370;2024-03-06T10:39:11;41.08;;;17.58;;
71435;SDS011;59251;51.326;12.370;2024-03-06T10:41:40;41.23;;;17.17;;
71435;SDS011;59251;51.326;12.370;2024-03-06T10:44:09;39.70;;;15.98;;
71435;SDS011;59251;51.326;12.370;2024-03-06T10:46:41;37.08;;;16.55;;
71435;SDS011;59251;51.326;12.370;2024-03-06T10:49:12;40.17;;;17.35;;
71435;SDS011;59251;51.326;12.370;2024-03-06T10:51:39;40.35;;;16.67;;
71435;SDS011;59251;51.326;12.370;2024-03-06T10:54:10;43.70;;;17.67;;
71435;SDS011;59251;51.326;12.370;2024-03-06T10:56:39;41.67;;;18.20;;
71435;SDS011;59251;51.326;12.370;2024-03-06T10:59:09;42.55;;;18.77;;
71435;SDS011;59251;51.326;12.370;2024-03-06T11:01:38;41.50;;;17.83;;
71435;SDS011;59251;51.326;12.370;2024-03-06T11:04:05;38.00;;;16.35;;
71435;SDS011;59251;51.326;12.370;2024-03-06T11:06:32;37.47;;;16.60;;
71435;SDS011;59251;51.326;12.370;2024-03-06T11:09:00;39.67;;;17.83;;
71435;SDS011;59251;51.326;12.370;2024-03-06T11:11:29;40.15;;;17.15;;
71435;SDS011;59251;51.326;12.370;2024-03-06T11:14:00;37.75;;;15.82;;
71435;SDS011;59251;51.326;12.370;2024-03-06T11:16:28;36.85;;;15.50;;
71435;SDS011;59251;51.326;12.370;2024-03-06T11:19:04;39.93;;;15.97;;
71435;SDS011;59251;51.326;12.370;2024-03-06T11:21:32;37.15;;;17.33;;
71435;SDS011;59251;51.326;12.370;2024-03-06T11:24:17;36.60;;;16.33;;
71435;SDS011;59251;51.326;12.370;2024-03-06T11:26:47;34.53;;;15.73;;
71435;SDS011;59251;51.326;12.370;2024-03-06T11:29:15;35.97;;;16.58;;
71435;SDS011;59251;51.326;12.370;2024-03-06T11:34:35;37.10;;;16.73;;
71435;SDS011;59251;51.326;12.370;2024-03-06T11:37:03;32.65;;;15.93;;
71435;SDS011;59251;51.326;12.370;2024-03-06T11:39:34;34.45;;;15.32;;
71435;SDS011;59251;51.326;12.370;2024-03-06T11:42:03;35.58;;;15.77;;
71435;SDS011;59251;51.326;12.370;2024-03-06T11:44:33;34.30;;;14.10;;
71435;SDS011;59251;51.326;12.370;2024-03-06T11:47:01;32.63;;;14.02;;
71435;SDS011;59251;51.326;12.370;2024-03-06T11:49:29;32.03;;;14.50;;
71435;SDS011;59251;51.326;12.370;2024-03-06T11:51:59;28.15;;;14.40;;
71435;SDS011;59251;51.326;12.370;2024-03-06T11:54:27;32.33;;;15.45;;
71435;SDS011;59251;51.326;12.370;2024-03-06T11:56:55;26.73;;;12.83;;
71435;SDS011;59251;51.326;12.370;2024-03-06T11:59:23;29.33;;;15.27;;
71435;SDS011;59251;51.326;12.370;2024-03-06T12:01:51;30.75;;;13.68;;
71435;SDS011;59251;51.326;12.370;2024-03-06T12:04:18;31.02;;;14.65;;
71435;SDS011;59251;51.326;12.370;2024-03-06T12:06:46;34.65;;;15.25;;
71435;SDS011;59251;51.326;12.370;2024-03-06T12:09:13;33.50;;;15.17;;
71435;SDS011;59251;51.326;12.370;2024-03-06T12:11:40;35.30;;;18.38;;
71435;SDS011;59251;51.326;12.370;2024-03-06T12:14:12;35.70;;;15.15;;
71435;SDS011;59251;51.326;12.370;2024-03-06T12:16:43;29.02;;;13.77;;
71435;SDS011;59251;51.326;12.370;2024-03-06T12:19:10;32.55;;;16.05;;
71435;SDS011;59251;51.326;12.370;2024-03-06T12:21:37;29.93;;;14.83;;
71435;SDS011;59251;51.326;12.370;2024-03-06T12:24:06;30.73;;;15.40;;
71435;SDS011;59251;51.326;12.370;2024-03-06T12:26:34;29.92;;;14.30;;
71435;SDS011;59251;51.326;12.370;2024-03-06T12:29:05;29.35;;;14.73;;
71435;SDS011;59251;51.326;12.370;2024-03-06T12:31:33;24.20;;;13.05;;
71435;SDS011;59251;51.326;12.370;2024-03-06T12:34:02;26.40;;;13.30;;
71435;SDS011;59251;51.326;12.370;2024-03-06T12:36:29;27.02;;;14.02;;
71435;SDS011;59251;51.326;12.370;2024-03-06T12:38:58;25.33;;;13.85;;
71435;SDS011;59251;51.326;12.370;2024-03-06T12:41:26;26.33;;;14.15;;
71435;SDS011;59251;51.326;12.370;2024-03-06T12:43:53;26.13;;;14.45;;
71435;SDS011;59251;51.326;12.370;2024-03-06T12:46:21;27.10;;;14.73;;
71435;SDS011;59251;51.326;12.370;2024-03-06T12:48:48;30.73;;;15.60;;
71435;SDS011;59251;51.326;12.370;2024-03-06T12:51:16;27.48;;;14.75;;
71435;SDS011;59251;51.326;12.370;2024-03-06T12:53:43;27.77;;;14.45;;
71435;SDS011;59251;51.326;12.370;2024-03-06T12:56:10;30.63;;;14.35;;
71435;SDS011;59251;51.326;12.370;2024-03-06T12:58:37;28.47;;;13.93;;
71435;SDS011;59251;51.326;12.370;2024-03-06T13:01:04;27.70;;;13.60;;
71435;SDS011;59251;51.326;12.370;2024-03-06T13:03:31;26.90;;;14.27;;
71435;SDS011;59251;51.326;12.370;2024-03-06T13:05:57;24.88;;;12.30;;
71435;SDS011;59251;51.326;12.370;2024-03-06T13:08:26;23.70;;;12.65;;
71435;SDS011;59251;51.326;12.370;2024-03-06T13:10:53;25.50;;;12.17;;
71435;SDS011;59251;51.326;12.370;2024-03-06T13:13:19;25.15;;;13.73;;
71435;SDS011;59251;51.326;12.370;2024-03-06T13:15:49;26.35;;;13.40;;
71435;SDS011;59251;51.326;12.370;2024-03-06T13:18:15;24.63;;;12.55;;
71435;SDS011;59251;51.326;12.370;2024-03-06T13:20:42;24.05;;;12.00;;
71435;SDS011;59251;51.326;12.370;2024-03-06T13:23:09;22.40;;;11.57;;
71435;SDS011;59251;51.326;12.370;2024-03-06T13:25:38;27.80;;;14.85;;
71435;SDS011;59251;51.326;12.370;2024-03-06T13:28:05;27.90;;;14.60;;
71435;SDS011;59251;51.326;12.370;2024-03-06T13:30:32;27.52;;;14.75;;
71435;SDS011;59251;51.326;12.370;2024-03-06T13:32:59;31.50;;;14.02;;
71435;SDS011;59251;51.326;12.370;2024-03-06T13:35:25;27.80;;;12.90;;
71435;SDS011;59251;51.326;12.370;2024-03-06T13:37:53;21.30;;;11.15;;
71435;SDS011;59251;51.326;12.370;2024-03-06T13:40:20;24.95;;;12.10;;
71435;SDS011;59251;51.326;12.370;2024-03-06T13:42:48;27.52;;;12.45;;
71435;SDS011;59251;51.326;12.370;2024-03-06T13:45:15;24.58;;;11.80;;
71435;SDS011;59251;51.326;12.370;2024-03-06T13:47:42;23.90;;;11.60;;
71435;SDS011;59251;51.326;12.370;2024-03-06T13:50:10;25.67;;;11.80;;
71435;SDS011;59251;51.326;12.370;2024-03-06T13:52:37;23.30;;;11.75;;
71435;SDS011;59251;51.326;12.370;2024-03-06T13:55:05;22.10;;;10.75;;
71435;SDS011;59251;51.326;12.370;2024-03-06T13:57:33;24.65;;;10.63;;
71435;SDS011;59251;51.326;12.370;2024-03-06T14:00:02;24.83;;;10.27;;
71435;SDS011;59251;51.326;12.370;2024-03-06T14:02:36;23.33;;;11.98;;
71435;SDS011;59251;51.326;12.370;2024-03-06T14:05:04;22.77;;;10.77;;
71435;SDS011;59251;51.326;12.370;2024-03-06T14:07:31;24.90;;;10.93;;
71435;SDS011;59251;51.326;12.370;2024-03-06T14:09:59;21.88;;;9.50;;
71435;SDS011;59251;51.326;12.370;2024-03-06T14:12:25;18.60;;;9.73;;
71435;SDS011;59251;51.326;12.370;2024-03-06T14:14:52;16.70;;;9.05;;
71435;SDS011;59251;51.326;12.370;2024-03-06T14:17:21;18.38;;;8.30;;